KGRR/GRR METAR and TAF weather

Enter ICAO airport designator
Station Type Date Time Source
KGRR METAR 2020/10/22 03:53 UTC NOAA

KGRR 220353Z 35008KT 10SM FEW080 BKN120 OVC230 08/07 A3022 RMK AO2 SLP236 LAST T00780067


Station Type Date Time Source
KGRR Decoded METAR 2020/10/22 03:53 UTC NOAA

GERALD R. FORD INTERNATIONAL, MI, United States (KGRR) 42-53N 085-31W 239M
Oct 21, 2020 - 11:53 PM EDT / 2020.10.22 0353 UTC
Wind: from the N (350 degrees) at 9 MPH (8 KT):0
Visibility: 10 mile(s):0
Sky conditions: overcast
Temperature: 46.0 F (7.8 C)
Dew Point: 44.1 F (6.7 C)
Relative Humidity: 92%
Pressure (altimeter): 30.22 in. Hg (1023 hPa)
ob: KGRR 220353Z 35008KT 10SM FEW080 BKN120 OVC230 08/07 A3022 RMK AO2 SLP236 LAST T00780067
cycle: 4

Station Type Date Time Source
KGRR TAF 2020/10/21 18:36 UTC NOAA

TAF KGRR 211735Z 2118/2218 26012KT P6SM OVC025
FM211900 27010KT P6SM FEW030 BKN150
FM220000 VRB03KT P6SM BKN120
FM220400 04005KT P6SM VCSH BKN060
FM220800 07007KT 3SM -SHRA BR VCTS SCT015CB BKN025
FM221200 09008KT 2SM -SHRA BR VCTS OVC005CB
FM221600 10006KT 4SM BR VCSH OVC005

Example: see airport list